sensor_id;sensor_type;location;lat;lon;timestamp;temperature;humidity
33827;DHT22;20128;45.582;5.298;2024-02-21T00:02:11;11.40;80.00
33827;DHT22;20128;45.582;5.298;2024-02-21T00:04:37;11.40;80.10
33827;DHT22;20128;45.582;5.298;2024-02-21T00:07:04;11.30;80.10
33827;DHT22;20128;45.582;5.298;2024-02-21T00:09:29;11.30;79.80
33827;DHT22;20128;45.582;5.298;2024-02-21T00:11:55;11.30;80.00
33827;DHT22;20128;45.582;5.298;2024-02-21T00:14:21;11.20;80.00
33827;DHT22;20128;45.582;5.298;2024-02-21T00:16:47;11.20;79.80
33827;DHT22;20128;45.582;5.298;2024-02-21T00:19:12;11.20;79.40
33827;DHT22;20128;45.582;5.298;2024-02-21T00:21:40;11.10;79.40
33827;DHT22;20128;45.582;5.298;2024-02-21T00:24:05;10.90;79.30
33827;DHT22;20128;45.582;5.298;2024-02-21T00:26:31;10.80;80.00
33827;DHT22;20128;45.582;5.298;2024-02-21T00:28:57;10.60;79.60
33827;DHT22;20128;45.582;5.298;2024-02-21T00:31:23;10.30;79.70
33827;DHT22;20128;45.582;5.298;2024-02-21T00:33:48;10.00;80.00
33827;DHT22;20128;45.582;5.298;2024-02-21T00:36:14;9.60;80.60
33827;DHT22;20128;45.582;5.298;2024-02-21T00:38:40;9.40;81.50
33827;DHT22;20128;45.582;5.298;2024-02-21T00:41:06;9.40;82.10
33827;DHT22;20128;45.582;5.298;2024-02-21T00:43:31;9.50;82.60
33827;DHT22;20128;45.582;5.298;2024-02-21T00:45:57;9.60;82.90
33827;DHT22;20128;45.582;5.298;2024-02-21T00:48:23;9.80;83.40
33827;DHT22;20128;45.582;5.298;2024-02-21T00:50:48;10.00;83.50
33827;DHT22;20128;45.582;5.298;2024-02-21T00:53:14;10.20;83.40
33827;DHT22;20128;45.582;5.298;2024-02-21T00:55:41;10.30;83.50
33827;DHT22;20128;45.582;5.298;2024-02-21T00:58:08;10.50;83.50
33827;DHT22;20128;45.582;5.298;2024-02-21T01:00:33;10.60;82.90
33827;DHT22;20128;45.582;5.298;2024-02-21T01:02:59;10.60;82.60
33827;DHT22;20128;45.582;5.298;2024-02-21T01:05:25;10.70;82.80
33827;DHT22;20128;45.582;5.298;2024-02-21T01:07:52;10.70;82.90
33827;DHT22;20128;45.582;5.298;2024-02-21T01:10:18;10.80;83.00
33827;DHT22;20128;45.582;5.298;2024-02-21T01:12:43;10.90;83.20
33827;DHT22;20128;45.582;5.298;2024-02-21T01:15:09;11.00;82.80
33827;DHT22;20128;45.582;5.298;2024-02-21T01:17:35;11.00;82.30
33827;DHT22;20128;45.582;5.298;2024-02-21T01:20:02;10.90;81.60
33827;DHT22;20128;45.582;5.298;2024-02-21T01:22:28;10.80;80.90
33827;DHT22;20128;45.582;5.298;2024-02-21T01:24:54;10.70;80.80
33827;DHT22;20128;45.582;5.298;2024-02-21T01:27:19;10.70;80.90
33827;DHT22;20128;45.582;5.298;2024-02-21T01:29:46;10.60;81.20
33827;DHT22;20128;45.582;5.298;2024-02-21T01:32:13;10.50;80.80
33827;DHT22;20128;45.582;5.298;2024-02-21T01:34:38;10.40;81.40
33827;DHT22;20128;45.582;5.298;2024-02-21T01:37:04;10.40;82.00
33827;DHT22;20128;45.582;5.298;2024-02-21T01:39:32;10.40;82.00
33827;DHT22;20128;45.582;5.298;2024-02-21T01:41:58;10.40;82.00
33827;DHT22;20128;45.582;5.298;2024-02-21T01:44:24;10.30;81.10
33827;DHT22;20128;45.582;5.298;2024-02-21T01:46:50;10.40;81.60
33827;DHT22;20128;45.582;5.298;2024-02-21T01:49:17;10.40;82.40
33827;DHT22;20128;45.582;5.298;2024-02-21T01:51:42;10.50;82.70
33827;DHT22;20128;45.582;5.298;2024-02-21T01:54:08;10.50;82.50
33827;DHT22;20128;45.582;5.298;2024-02-21T01:56:35;10.50;82.50
33827;DHT22;20128;45.582;5.298;2024-02-21T01:59:01;10.60;81.90
33827;DHT22;20128;45.582;5.298;2024-02-21T02:01:27;10.60;82.60
33827;DHT22;20128;45.582;5.298;2024-02-21T02:03:53;10.70;82.90
33827;DHT22;20128;45.582;5.298;2024-02-21T02:06:20;10.70;83.00
33827;DHT22;20128;45.582;5.298;2024-02-21T02:08:46;10.80;83.10
33827;DHT22;20128;45.582;5.298;2024-02-21T02:11:13;10.90;82.90
33827;DHT22;20128;45.582;5.298;2024-02-21T02:13:40;10.90;81.80
33827;DHT22;20128;45.582;5.298;2024-02-21T02:16:05;10.80;81.20
33827;DHT22;20128;45.582;5.298;2024-02-21T02:18:31;10.70;81.40
33827;DHT22;20128;45.582;5.298;2024-02-21T02:20:57;10.80;82.10
33827;DHT22;20128;45.582;5.298;2024-02-21T02:23:31;10.80;82.10
33827;DHT22;20128;45.582;5.298;2024-02-21T02:25:57;10.80;82.10
33827;DHT22;20128;45.582;5.298;2024-02-21T02:31:29;10.70;82.10
33827;DHT22;20128;45.582;5.298;2024-02-21T02:33:54;10.80;82.50
33827;DHT22;20128;45.582;5.298;2024-02-21T02:36:20;10.80;82.20
33827;DHT22;20128;45.582;5.298;2024-02-21T02:38:46;10.80;82.30
33827;DHT22;20128;45.582;5.298;2024-02-21T02:41:11;10.80;82.20
33827;DHT22;20128;45.582;5.298;2024-02-21T02:43:37;10.80;81.60
33827;DHT22;20128;45.582;5.298;2024-02-21T02:46:03;10.70;81.40
33827;DHT22;20128;45.582;5.298;2024-02-21T02:48:29;10.70;81.00
33827;DHT22;20128;45.582;5.298;2024-02-21T02:50:55;10.60;81.40
33827;DHT22;20128;45.582;5.298;2024-02-21T02:53:20;10.50;81.30
33827;DHT22;20128;45.582;5.298;2024-02-21T02:55:46;10.50;81.70
33827;DHT22;20128;45.582;5.298;2024-02-21T02:58:12;10.40;81.80
33827;DHT22;20128;45.582;5.298;2024-02-21T03:00:37;10.40;81.70
33827;DHT22;20128;45.582;5.298;2024-02-21T03:03:04;10.50;82.40
33827;DHT22;20128;45.582;5.298;2024-02-21T03:05:30;10.50;82.70
33827;DHT22;20128;45.582;5.298;2024-02-21T03:07:56;10.50;82.30
33827;DHT22;20128;45.582;5.298;2024-02-21T03:10:21;10.50;81.10
33827;DHT22;20128;45.582;5.298;2024-02-21T03:12:47;10.30;81.30
33827;DHT22;20128;45.582;5.298;2024-02-21T03:15:13;10.20;81.40
33827;DHT22;20128;45.582;5.298;2024-02-21T03:17:39;9.90;81.30
33827;DHT22;20128;45.582;5.298;2024-02-21T03:20:06;9.50;81.50
33827;DHT22;20128;45.582;5.298;2024-02-21T03:22:35;9.20;82.00
33827;DHT22;20128;45.582;5.298;2024-02-21T03:25:01;9.10;82.90
33827;DHT22;20128;45.582;5.298;2024-02-21T03:27:27;9.20;83.30
33827;DHT22;20128;45.582;5.298;2024-02-21T03:29:53;9.30;83.20
33827;DHT22;20128;45.582;5.298;2024-02-21T03:32:18;9.30;83.50
33827;DHT22;20128;45.582;5.298;2024-02-21T03:34:44;9.20;83.10
33827;DHT22;20128;45.582;5.298;2024-02-21T03:37:10;9.10;82.90
33827;DHT22;20128;45.582;5.298;2024-02-21T03:39:35;9.00;83.10
33827;DHT22;20128;45.582;5.298;2024-02-21T03:42:02;8.90;83.40
33827;DHT22;20128;45.582;5.298;2024-02-21T03:44:30;8.70;83.50
33827;DHT22;20128;45.582;5.298;2024-02-21T03:46:57;8.80;84.20
33827;DHT22;20128;45.582;5.298;2024-02-21T03:49:22;8.70;84.20
33827;DHT22;20128;45.582;5.298;2024-02-21T03:51:49;8.80;84.40
33827;DHT22;20128;45.582;5.298;2024-02-21T03:54:15;8.80;84.00
33827;DHT22;20128;45.582;5.298;2024-02-21T03:56:40;8.70;83.90
33827;DHT22;20128;45.582;5.298;2024-02-21T03:59:07;8.60;84.30
33827;DHT22;20128;45.582;5.298;2024-02-21T04:01:34;8.50;84.20
33827;DHT22;20128;45.582;5.298;2024-02-21T04:04:00;8.30;84.40
33827;DHT22;20128;45.582;5.298;2024-02-21T04:06:25;8.10;85.00
33827;DHT22;20128;45.582;5.298;2024-02-21T04:08:51;8.00;85.30
33827;DHT22;20128;45.582;5.298;2024-02-21T04:11:16;8.00;85.90
33827;DHT22;20128;45.582;5.298;2024-02-21T04:13:44;8.00;85.80
33827;DHT22;20128;45.582;5.298;2024-02-21T04:16:10;8.10;86.20
33827;DHT22;20128;45.582;5.298;2024-02-21T04:18:36;8.10;86.40
33827;DHT22;20128;45.582;5.298;2024-02-21T04:21:01;8.20;86.10
33827;DHT22;20128;45.582;5.298;2024-02-21T04:23:27;8.20;86.00
33827;DHT22;20128;45.582;5.298;2024-02-21T04:25:52;8.20;86.10
33827;DHT22;20128;45.582;5.298;2024-02-21T04:28:18;8.30;86.00
33827;DHT22;20128;45.582;5.298;2024-02-21T04:30:44;8.20;85.90
33827;DHT22;20128;45.582;5.298;2024-02-21T04:33:09;8.30;86.00
33827;DHT22;20128;45.582;5.298;2024-02-21T04:35:36;8.30;86.10
33827;DHT22;20128;45.582;5.298;2024-02-21T04:38:02;8.30;85.90
33827;DHT22;20128;45.582;5.298;2024-02-21T04:40:27;8.30;86.20
33827;DHT22;20128;45.582;5.298;2024-02-21T04:42:54;8.40;86.00
33827;DHT22;20128;45.582;5.298;2024-02-21T04:45:19;8.40;85.90
33827;DHT22;20128;45.582;5.298;2024-02-21T04:47:45;8.40;86.10
33827;DHT22;20128;45.582;5.298;2024-02-21T04:50:11;8.50;86.30
33827;DHT22;20128;45.582;5.298;2024-02-21T04:52:36;8.50;86.50
33827;DHT22;20128;45.582;5.298;2024-02-21T04:55:02;8.50;86.00
33827;DHT22;20128;45.582;5.298;2024-02-21T04:57:28;8.50;86.00
33827;DHT22;20128;45.582;5.298;2024-02-21T04:59:53;8.50;86.00
33827;DHT22;20128;45.582;5.298;2024-02-21T05:02:19;8.60;85.90
33827;DHT22;20128;45.582;5.298;2024-02-21T05:04:47;8.50;85.80
33827;DHT22;20128;45.582;5.298;2024-02-21T05:07:13;8.60;86.50
33827;DHT22;20128;45.582;5.298;2024-02-21T05:09:39;8.70;87.30
33827;DHT22;20128;45.582;5.298;2024-02-21T05:12:04;8.90;87.80
33827;DHT22;20128;45.582;5.298;2024-02-21T05:14:30;9.00;87.80
33827;DHT22;20128;45.582;5.298;2024-02-21T05:16:56;9.20;87.80
33827;DHT22;20128;45.582;5.298;2024-02-21T05:19:21;9.40;87.90
33827;DHT22;20128;45.582;5.298;2024-02-21T05:21:47;9.50;87.60
33827;DHT22;20128;45.582;5.298;2024-02-21T05:24:12;9.60;87.50
33827;DHT22;20128;45.582;5.298;2024-02-21T05:26:38;9.70;87.40
33827;DHT22;20128;45.582;5.298;2024-02-21T05:29:04;9.80;87.00
33827;DHT22;20128;45.582;5.298;2024-02-21T05:32:04;9.80;86.90
33827;DHT22;20128;45.582;5.298;2024-02-21T05:34:29;9.90;86.80
33827;DHT22;20128;45.582;5.298;2024-02-21T05:36:54;10.00;87.30
33827;DHT22;20128;45.582;5.298;2024-02-21T05:39:20;10.00;86.10
33827;DHT22;20128;45.582;5.298;2024-02-21T05:41:48;10.00;86.00
33827;DHT22;20128;45.582;5.298;2024-02-21T05:44:15;10.00;86.30
33827;DHT22;20128;45.582;5.298;2024-02-21T05:46:40;10.00;86.30
33827;DHT22;20128;45.582;5.298;2024-02-21T05:49:06;10.10;86.40
33827;DHT22;20128;45.582;5.298;2024-02-21T05:51:33;10.10;86.10
33827;DHT22;20128;45.582;5.298;2024-02-21T05:53:59;10.20;86.20
33827;DHT22;20128;45.582;5.298;2024-02-21T05:56:24;10.30;86.00
33827;DHT22;20128;45.582;5.298;2024-02-21T05:58:50;10.30;85.70
33827;DHT22;20128;45.582;5.298;2024-02-21T06:01:15;10.30;85.60
33827;DHT22;20128;45.582;5.298;2024-02-21T06:03:41;10.30;85.50
33827;DHT22;20128;45.582;5.298;2024-02-21T06:06:06;10.40;85.60
33827;DHT22;20128;45.582;5.298;2024-02-21T06:08:32;10.30;85.40
33827;DHT22;20128;45.582;5.298;2024-02-21T06:10:58;10.30;85.50
33827;DHT22;20128;45.582;5.298;2024-02-21T06:13:24;10.40;85.60
33827;DHT22;20128;45.582;5.298;2024-02-21T06:15:50;10.40;85.30
33827;DHT22;20128;45.582;5.298;2024-02-21T06:18:17;10.50;85.20
33827;DHT22;20128;45.582;5.298;2024-02-21T06:20:43;10.50;85.10
33827;DHT22;20128;45.582;5.298;2024-02-21T06:23:09;10.50;84.90
33827;DHT22;20128;45.582;5.298;2024-02-21T06:25:35;10.40;84.70
33827;DHT22;20128;45.582;5.298;2024-02-21T06:28:00;10.40;84.80
33827;DHT22;20128;45.582;5.298;2024-02-21T06:30:26;10.30;84.30
33827;DHT22;20128;45.582;5.298;2024-02-21T06:32:52;10.20;84.30
33827;DHT22;20128;45.582;5.298;2024-02-21T06:35:18;10.00;84.00
33827;DHT22;20128;45.582;5.298;2024-02-21T06:37:44;10.00;84.50
33827;DHT22;20128;45.582;5.298;2024-02-21T06:40:16;9.90;84.30
33827;DHT22;20128;45.582;5.298;2024-02-21T06:42:41;9.80;84.90
33827;DHT22;20128;45.582;5.298;2024-02-21T06:45:07;9.70;84.00
33827;DHT22;20128;45.582;5.298;2024-02-21T06:47:33;9.40;83.90
33827;DHT22;20128;45.582;5.298;2024-02-21T06:49:58;9.20;84.60
33827;DHT22;20128;45.582;5.298;2024-02-21T06:52:24;9.20;85.10
33827;DHT22;20128;45.582;5.298;2024-02-21T06:54:50;9.10;84.60
33827;DHT22;20128;45.582;5.298;2024-02-21T06:57:16;8.90;84.60
33827;DHT22;20128;45.582;5.298;2024-02-21T06:59:42;8.60;84.80
33827;DHT22;20128;45.582;5.298;2024-02-21T07:02:08;8.20;85.40
33827;DHT22;20128;45.582;5.298;2024-02-21T07:04:34;7.90;86.30
33827;DHT22;20128;45.582;5.298;2024-02-21T07:07:00;7.90;87.50
33827;DHT22;20128;45.582;5.298;2024-02-21T07:09:25;7.90;87.50
33827;DHT22;20128;45.582;5.298;2024-02-21T07:11:51;7.90;87.40
33827;DHT22;20128;45.582;5.298;2024-02-21T07:14:18;7.90;87.90
33827;DHT22;20128;45.582;5.298;2024-02-21T07:16:44;8.10;88.70
33827;DHT22;20128;45.582;5.298;2024-02-21T07:19:09;8.30;89.10
33827;DHT22;20128;45.582;5.298;2024-02-21T07:21:35;8.60;89.40
33827;DHT22;20128;45.582;5.298;2024-02-21T07:24:03;8.80;89.30
33827;DHT22;20128;45.582;5.298;2024-02-21T07:26:31;9.00;88.50
33827;DHT22;20128;45.582;5.298;2024-02-21T07:28:56;9.00;87.30
33827;DHT22;20128;45.582;5.298;2024-02-21T07:31:22;8.80;86.70
33827;DHT22;20128;45.582;5.298;2024-02-21T07:33:48;8.50;86.70
33827;DHT22;20128;45.582;5.298;2024-02-21T07:36:15;8.20;87.30
33827;DHT22;20128;45.582;5.298;2024-02-21T07:38:41;8.20;87.90
33827;DHT22;20128;45.582;5.298;2024-02-21T07:41:07;8.10;88.10
33827;DHT22;20128;45.582;5.298;2024-02-21T07:43:32;8.10;88.40
33827;DHT22;20128;45.582;5.298;2024-02-21T07:45:58;8.00;88.60
33827;DHT22;20128;45.582;5.298;2024-02-21T07:48:24;7.90;89.10
33827;DHT22;20128;45.582;5.298;2024-02-21T07:50:52;7.80;89.10
33827;DHT22;20128;45.582;5.298;2024-02-21T07:53:19;7.70;89.40
33827;DHT22;20128;45.582;5.298;2024-02-21T07:55:45;7.60;89.70
33827;DHT22;20128;45.582;5.298;2024-02-21T07:58:11;7.60;90.20
33827;DHT22;20128;45.582;5.298;2024-02-21T08:00:36;7.60;90.40
33827;DHT22;20128;45.582;5.298;2024-02-21T08:03:02;7.70;90.70
33827;DHT22;20128;45.582;5.298;2024-02-21T08:05:28;7.70;90.60
33827;DHT22;20128;45.582;5.298;2024-02-21T08:07:55;7.80;90.60
33827;DHT22;20128;45.582;5.298;2024-02-21T08:10:21;7.70;90.60
33827;DHT22;20128;45.582;5.298;2024-02-21T08:12:47;7.90;90.70
33827;DHT22;20128;45.582;5.298;2024-02-21T08:15:12;7.90;90.60
33827;DHT22;20128;45.582;5.298;2024-02-21T08:17:38;7.90;90.60
33827;DHT22;20128;45.582;5.298;2024-02-21T08:20:04;8.00;90.80
33827;DHT22;20128;45.582;5.298;2024-02-21T08:22:30;8.00;90.60
33827;DHT22;20128;45.582;5.298;2024-02-21T08:24:56;7.90;90.70
33827;DHT22;20128;45.582;5.298;2024-02-21T08:27:21;7.90;90.90
33827;DHT22;20128;45.582;5.298;2024-02-21T08:29:47;7.90;91.00
33827;DHT22;20128;45.582;5.298;2024-02-21T08:32:13;7.90;91.10
33827;DHT22;20128;45.582;5.298;2024-02-21T08:34:38;7.90;91.20
33827;DHT22;20128;45.582;5.298;2024-02-21T08:37:04;8.00;91.30
33827;DHT22;20128;45.582;5.298;2024-02-21T08:39:30;8.00;91.30
33827;DHT22;20128;45.582;5.298;2024-02-21T08:41:56;8.00;91.30
33827;DHT22;20128;45.582;5.298;2024-02-21T08:44:23;8.10;91.30
33827;DHT22;20128;45.582;5.298;2024-02-21T08:46:51;8.10;91.30
33827;DHT22;20128;45.582;5.298;2024-02-21T08:49:16;8.20;91.30
33827;DHT22;20128;45.582;5.298;2024-02-21T08:51:43;8.20;91.20
33827;DHT22;20128;45.582;5.298;2024-02-21T08:54:09;8.30;91.30
33827;DHT22;20128;45.582;5.298;2024-02-21T08:56:35;8.20;91.40
33827;DHT22;20128;45.582;5.298;2024-02-21T08:59:01;8.40;91.80
33827;DHT22;20128;45.582;5.298;2024-02-21T09:01:27;8.50;91.40
33827;DHT22;20128;45.582;5.298;2024-02-21T09:03:52;8.60;91.40
33827;DHT22;20128;45.582;5.298;2024-02-21T09:06:19;8.70;91.40
33827;DHT22;20128;45.582;5.298;2024-02-21T09:08:45;8.70;91.40
33827;DHT22;20128;45.582;5.298;2024-02-21T09:11:11;8.70;91.40
33827;DHT22;20128;45.582;5.298;2024-02-21T09:13:37;8.70;91.50
33827;DHT22;20128;45.582;5.298;2024-02-21T09:16:03;8.80;91.50
33827;DHT22;20128;45.582;5.298;2024-02-21T09:18:29;8.80;91.60
33827;DHT22;20128;45.582;5.298;2024-02-21T09:20:55;8.80;91.60
33827;DHT22;20128;45.582;5.298;2024-02-21T09:23:23;8.90;91.70
33827;DHT22;20128;45.582;5.298;2024-02-21T09:25:49;8.90;91.80
33827;DHT22;20128;45.582;5.298;2024-02-21T09:28:14;9.00;91.80
33827;DHT22;20128;45.582;5.298;2024-02-21T09:30:40;9.10;91.90
33827;DHT22;20128;45.582;5.298;2024-02-21T09:33:06;9.30;92.00
33827;DHT22;20128;45.582;5.298;2024-02-21T09:35:32;9.40;91.80
33827;DHT22;20128;45.582;5.298;2024-02-21T09:37:59;9.60;91.90
33827;DHT22;20128;45.582;5.298;2024-02-21T09:40:25;9.80;91.70
33827;DHT22;20128;45.582;5.298;2024-02-21T09:43:03;9.90;91.30
33827;DHT22;20128;45.582;5.298;2024-02-21T09:45:38;10.10;90.50
33827;DHT22;20128;45.582;5.298;2024-02-21T09:48:38;10.30;90.60
33827;DHT22;20128;45.582;5.298;2024-02-21T09:51:09;10.40;90.00
33827;DHT22;20128;45.582;5.298;2024-02-21T09:53:37;10.60;90.00
33827;DHT22;20128;45.582;5.298;2024-02-21T09:56:05;10.70;90.30
33827;DHT22;20128;45.582;5.298;2024-02-21T09:58:33;10.90;90.00
33827;DHT22;20128;45.582;5.298;2024-02-21T10:00:59;11.00;89.90
33827;DHT22;20128;45.582;5.298;2024-02-21T10:03:25;11.20;88.30
33827;DHT22;20128;45.582;5.298;2024-02-21T10:05:51;11.30;87.80
33827;DHT22;20128;45.582;5.298;2024-02-21T10:08:18;11.50;88.40
33827;DHT22;20128;45.582;5.298;2024-02-21T10:10:45;11.60;87.10
33827;DHT22;20128;45.582;5.298;2024-02-21T10:13:25;11.70;87.50
33827;DHT22;20128;45.582;5.298;2024-02-21T10:16:05;11.70;87.30
33827;DHT22;20128;45.582;5.298;2024-02-21T10:18:32;11.90;86.40
33827;DHT22;20128;45.582;5.298;2024-02-21T10:21:05;11.90;85.80
33827;DHT22;20128;45.582;5.298;2024-02-21T10:23:48;12.00;85.20
33827;DHT22;20128;45.582;5.298;2024-02-21T10:26:15;12.00;84.10
33827;DHT22;20128;45.582;5.298;2024-02-21T10:28:41;12.00;84.30
33827;DHT22;20128;45.582;5.298;2024-02-21T10:31:11;12.10;84.60
33827;DHT22;20128;45.582;5.298;2024-02-21T10:33:40;12.20;84.00
33827;DHT22;20128;45.582;5.298;2024-02-21T10:36:07;12.20;83.60
33827;DHT22;20128;45.582;5.298;2024-02-21T10:38:35;12.30;82.80
33827;DHT22;20128;45.582;5.298;2024-02-21T10:41:00;12.30;82.00
33827;DHT22;20128;45.582;5.298;2024-02-21T10:43:32;12.40;81.20
33827;DHT22;20128;45.582;5.298;2024-02-21T10:46:00;12.40;81.20
33827;DHT22;20128;45.582;5.298;2024-02-21T10:48:39;12.50;81.20
33827;DHT22;20128;45.582;5.298;2024-02-21T10:51:15;12.50;81.40
33827;DHT22;20128;45.582;5.298;2024-02-21T10:56:28;12.60;81.50
33827;DHT22;20128;45.582;5.298;2024-02-21T10:58:54;12.70;81.30
33827;DHT22;20128;45.582;5.298;2024-02-21T11:01:22;12.90;81.30
33827;DHT22;20128;45.582;5.298;2024-02-21T11:03:52;13.00;80.70
33827;DHT22;20128;45.582;5.298;2024-02-21T11:06:20;13.00;80.50
33827;DHT22;20128;45.582;5.298;2024-02-21T11:08:47;13.10;80.40
33827;DHT22;20128;45.582;5.298;2024-02-21T11:11:13;13.20;80.00
33827;DHT22;20128;45.582;5.298;2024-02-21T11:13:47;13.30;80.40
33827;DHT22;20128;45.582;5.298;2024-02-21T11:16:22;13.40;79.60
33827;DHT22;20128;45.582;5.298;2024-02-21T11:18:48;13.50;78.70
33827;DHT22;20128;45.582;5.298;2024-02-21T11:21:15;13.60;78.60
33827;DHT22;20128;45.582;5.298;2024-02-21T11:23:41;13.70;78.10
33827;DHT22;20128;45.582;5.298;2024-02-21T11:26:10;13.70;77.80
33827;DHT22;20128;45.582;5.298;2024-02-21T11:28:44;13.80;77.80
33827;DHT22;20128;45.582;5.298;2024-02-21T11:31:14;13.90;77.80
33827;DHT22;20128;45.582;5.298;2024-02-21T11:33:40;13.90;76.90
33827;DHT22;20128;45.582;5.298;2024-02-21T11:36:08;14.00;76.10
33827;DHT22;20128;45.582;5.298;2024-02-21T11:38:34;14.00;76.30
33827;DHT22;20128;45.582;5.298;2024-02-21T11:40:59;14.10;74.30
33827;DHT22;20128;45.582;5.298;2024-02-21T11:43:25;14.20;74.60
33827;DHT22;20128;45.582;5.298;2024-02-21T11:45:58;14.20;74.50
33827;DHT22;20128;45.582;5.298;2024-02-21T11:48:24;14.20;74.60
33827;DHT22;20128;45.582;5.298;2024-02-21T11:50:54;14.30;74.60
33827;DHT22;20128;45.582;5.298;2024-02-21T11:53:20;14.30;74.20
33827;DHT22;20128;45.582;5.298;2024-02-21T11:55:46;14.40;74.00
33827;DHT22;20128;45.582;5.298;2024-02-21T11:58:12;14.50;70.50
33827;DHT22;20128;45.582;5.298;2024-02-21T12:00:37;14.50;68.80
33827;DHT22;20128;45.582;5.298;2024-02-21T12:03:04;14.60;70.30
33827;DHT22;20128;45.582;5.298;2024-02-21T12:05:30;14.60;70.50
33827;DHT22;20128;45.582;5.298;2024-02-21T12:07:56;14.60;70.40
33827;DHT22;20128;45.582;5.298;2024-02-21T12:10:24;14.70;68.80
33827;DHT22;20128;45.582;5.298;2024-02-21T12:12:51;14.70;68.10
33827;DHT22;20128;45.582;5.298;2024-02-21T12:15:18;14.70;66.40
33827;DHT22;20128;45.582;5.298;2024-02-21T12:17:44;14.80;65.30
33827;DHT22;20128;45.582;5.298;2024-02-21T12:20:10;14.80;65.20
33827;DHT22;20128;45.582;5.298;2024-02-21T12:22:43;14.80;65.80
33827;DHT22;20128;45.582;5.298;2024-02-21T12:25:16;14.80;65.30
33827;DHT22;20128;45.582;5.298;2024-02-21T12:27:46;14.80;65.60
33827;DHT22;20128;45.582;5.298;2024-02-21T12:30:12;14.80;65.40
33827;DHT22;20128;45.582;5.298;2024-02-21T12:32:38;14.80;66.30
33827;DHT22;20128;45.582;5.298;2024-02-21T12:35:04;14.80;67.10
33827;DHT22;20128;45.582;5.298;2024-02-21T12:37:29;14.80;67.30
33827;DHT22;20128;45.582;5.298;2024-02-21T12:39:55;14.90;67.60
33827;DHT22;20128;45.582;5.298;2024-02-21T12:42:21;14.90;67.30
33827;DHT22;20128;45.582;5.298;2024-02-21T12:44:48;14.90;66.60
33827;DHT22;20128;45.582;5.298;2024-02-21T12:47:14;14.90;66.80
33827;DHT22;20128;45.582;5.298;2024-02-21T12:49:40;15.00;66.60
33827;DHT22;20128;45.582;5.298;2024-02-21T12:52:05;15.00;65.20
33827;DHT22;20128;45.582;5.298;2024-02-21T12:54:31;15.00;65.70
33827;DHT22;20128;45.582;5.298;2024-02-21T12:56:57;15.00;66.00
33827;DHT22;20128;45.582;5.298;2024-02-21T12:59:22;15.00;66.50
33827;DHT22;20128;45.582;5.298;2024-02-21T13:01:48;15.10;65.90
33827;DHT22;20128;45.582;5.298;2024-02-21T13:04:14;15.10;66.00
33827;DHT22;20128;45.582;5.298;2024-02-21T13:06:40;15.10;65.00
33827;DHT22;20128;45.582;5.298;2024-02-21T13:09:05;15.10;64.30
33827;DHT22;20128;45.582;5.298;2024-02-21T13:11:34;15.10;64.60
33827;DHT22;20128;45.582;5.298;2024-02-21T13:14:00;15.10;65.30
33827;DHT22;20128;45.582;5.298;2024-02-21T13:16:26;15.20;63.70
33827;DHT22;20128;45.582;5.298;2024-02-21T13:18:54;15.20;62.30
33827;DHT22;20128;45.582;5.298;2024-02-21T13:21:20;15.20;62.90
33827;DHT22;20128;45.582;5.298;2024-02-21T13:23:45;15.20;62.80
33827;DHT22;20128;45.582;5.298;2024-02-21T13:26:11;15.20;62.00
33827;DHT22;20128;45.582;5.298;2024-02-21T13:28:38;15.20;61.70
33827;DHT22;20128;45.582;5.298;2024-02-21T13:31:04;15.20;62.00
33827;DHT22;20128;45.582;5.298;2024-02-21T13:33:29;15.20;61.30
33827;DHT22;20128;45.582;5.298;2024-02-21T13:35:55;15.30;61.20
33827;DHT22;20128;45.582;5.298;2024-02-21T13:38:21;15.30;61.10
33827;DHT22;20128;45.582;5.298;2024-02-21T13:40:46;15.40;61.20
33827;DHT22;20128;45.582;5.298;2024-02-21T13:43:12;15.40;60.60
33827;DHT22;20128;45.582;5.298;2024-02-21T13:45:38;15.50;60.10
33827;DHT22;20128;45.582;5.298;2024-02-21T13:48:07;15.60;60.00
33827;DHT22;20128;45.582;5.298;2024-02-21T13:50:36;15.60;60.30
33827;DHT22;20128;45.582;5.298;2024-02-21T13:53:08;15.70;59.60
33827;DHT22;20128;45.582;5.298;2024-02-21T13:55:34;15.70;59.70
33827;DHT22;20128;45.582;5.298;2024-02-21T13:58:00;15.70;59.60
33827;DHT22;20128;45.582;5.298;2024-02-21T14:00:26;15.70;59.60
33827;DHT22;20128;45.582;5.298;2024-02-21T14:02:52;15.70;60.00
33827;DHT22;20128;45.582;5.298;2024-02-21T14:05:20;15.70;59.70
33827;DHT22;20128;45.582;5.298;2024-02-21T14:07:45;15.60;60.10
33827;DHT22;20128;45.582;5.298;2024-02-21T14:10:11;15.60;60.00
33827;DHT22;20128;45.582;5.298;2024-02-21T14:12:36;15.60;60.10
33827;DHT22;20128;45.582;5.298;2024-02-21T14:15:04;15.60;59.00
33827;DHT22;20128;45.582;5.298;2024-02-21T14:17:30;15.60;58.80
33827;DHT22;20128;45.582;5.298;2024-02-21T14:19:56;15.60;59.00
33827;DHT22;20128;45.582;5.298;2024-02-21T14:22:21;15.60;58.90
33827;DHT22;20128;45.582;5.298;2024-02-21T14:24:47;15.60;59.20
33827;DHT22;20128;45.582;5.298;2024-02-21T14:27:13;15.60;59.50
33827;DHT22;20128;45.582;5.298;2024-02-21T14:29:39;15.60;60.00
33827;DHT22;20128;45.582;5.298;2024-02-21T14:32:04;15.60;59.00
33827;DHT22;20128;45.582;5.298;2024-02-21T14:34:31;15.50;59.20
33827;DHT22;20128;45.582;5.298;2024-02-21T14:36:56;15.50;59.60
33827;DHT22;20128;45.582;5.298;2024-02-21T14:39:22;15.50;59.80
33827;DHT22;20128;45.582;5.298;2024-02-21T14:41:48;15.50;59.70
33827;DHT22;20128;45.582;5.298;2024-02-21T14:44:14;15.50;59.30
33827;DHT22;20128;45.582;5.298;2024-02-21T14:46:39;15.50;59.10
33827;DHT22;20128;45.582;5.298;2024-02-21T14:49:05;15.60;58.60
33827;DHT22;20128;45.582;5.298;2024-02-21T14:51:31;15.50;58.90
33827;DHT22;20128;45.582;5.298;2024-02-21T14:53:57;15.60;57.90
33827;DHT22;20128;45.582;5.298;2024-02-21T14:56:22;15.60;58.60
33827;DHT22;20128;45.582;5.298;2024-02-21T14:58:49;15.60;58.00
33827;DHT22;20128;45.582;5.298;2024-02-21T15:01:15;15.60;58.90
33827;DHT22;20128;45.582;5.298;2024-02-21T15:03:41;15.60;59.20
33827;DHT22;20128;45.582;5.298;2024-02-21T15:06:08;15.60;58.70
33827;DHT22;20128;45.582;5.298;2024-02-21T15:08:33;15.60;58.90
33827;DHT22;20128;45.582;5.298;2024-02-21T15:10:59;15.60;58.80
33827;DHT22;20128;45.582;5.298;2024-02-21T15:13:25;15.60;58.50
33827;DHT22;20128;45.582;5.298;2024-02-21T15:15:51;15.60;59.00
33827;DHT22;20128;45.582;5.298;2024-02-21T15:18:17;15.60;58.80
33827;DHT22;20128;45.582;5.298;2024-02-21T15:20:43;15.60;59.10
33827;DHT22;20128;45.582;5.298;2024-02-21T15:23:09;15.60;59.10
33827;DHT22;20128;45.582;5.298;2024-02-21T15:25:35;15.60;59.40
33827;DHT22;20128;45.582;5.298;2024-02-21T15:28:01;15.60;59.30
33827;DHT22;20128;45.582;5.298;2024-02-21T15:30:29;15.60;59.20
33827;DHT22;20128;45.582;5.298;2024-02-21T15:32:57;15.60;59.30
33827;DHT22;20128;45.582;5.298;2024-02-21T15:35:27;15.60;58.80
33827;DHT22;20128;45.582;5.298;2024-02-21T15:37:53;15.60;58.80
33827;DHT22;20128;45.582;5.298;2024-02-21T15:40:21;15.60;59.50